createdAt,value
2023-02-25T06:19:22.675Z,100.00
2023-02-25T06:29:22.701Z,100.00
2023-02-25T06:39:22.784Z,100.00
2023-02-25T06:49:22.741Z,100.00
2023-02-25T06:59:22.693Z,100.00
2023-02-25T07:09:22.657Z,100.00
2023-02-25T07:19:22.618Z,100.00
2023-02-25T07:29:22.723Z,100.00
2023-02-25T07:39:22.681Z,100.00
2023-02-25T07:49:22.713Z,100.00
2023-02-25T07:59:22.761Z,100.00
2023-02-25T08:09:22.744Z,100.00
2023-02-25T08:19:22.689Z,100.00
2023-02-25T08:29:22.771Z,100.00
2023-02-25T08:39:22.623Z,100.00
2023-02-25T08:49:22.810Z,100.00
2023-02-25T08:59:22.657Z,100.00
2023-02-25T09:09:22.992Z,100.00
2023-02-25T09:19:22.748Z,100.00
2023-02-25T09:29:22.839Z,100.00
2023-02-25T09:39:22.727Z,100.00
2023-02-25T09:49:22.776Z,100.00
2023-02-25T09:59:22.761Z,100.00
2023-02-25T10:09:22.712Z,100.00
2023-02-25T10:19:22.611Z,100.00
2023-02-25T10:29:22.700Z,100.00
2023-02-25T10:39:22.783Z,100.00
2023-02-25T10:49:22.723Z,100.00
2023-02-25T10:59:22.730Z,100.00
2023-02-25T11:09:22.726Z,100.00
2023-02-25T11:19:23.221Z,99.20
2023-02-25T11:29:22.650Z,97.50
2023-02-25T11:39:22.656Z,97.61
2023-02-25T11:49:22.696Z,97.73
2023-02-25T11:59:22.582Z,98.58
2023-02-25T12:09:22.618Z,97.73
2023-02-25T12:19:22.582Z,100.00
2023-02-25T12:29:22.869Z,100.00
2023-02-25T12:39:22.753Z,100.00
2023-02-25T12:49:22.575Z,100.00
2023-02-25T12:59:22.649Z,100.00
2023-02-25T13:09:22.703Z,91.13
2023-02-25T13:19:22.612Z,88.58
2023-02-25T13:29:22.684Z,87.00
2023-02-25T13:39:22.704Z,85.98
2023-02-25T13:49:22.594Z,85.72
2023-02-25T13:59:22.709Z,84.81
2023-02-25T14:09:22.614Z,88.79
2023-02-25T14:19:22.739Z,87.11
2023-02-25T14:29:22.762Z,81.32
2023-02-25T14:39:22.711Z,79.70
2023-02-25T14:49:22.645Z,79.87
2023-02-25T14:59:22.644Z,75.01
2023-02-25T15:09:22.913Z,72.71
2023-02-25T15:19:22.858Z,74.90
2023-02-25T15:29:22.870Z,73.75
2023-02-25T15:39:22.818Z,70.72
2023-02-25T15:49:22.879Z,70.52
2023-02-25T15:59:22.930Z,67.79
2023-02-25T16:09:22.810Z,67.04
2023-02-25T16:19:22.960Z,66.35
2023-02-25T16:29:22.923Z,67.06
2023-02-25T16:39:22.843Z,68.46
2023-02-25T16:49:22.931Z,66.99
2023-02-25T16:59:22.820Z,68.53
2023-02-25T17:09:22.878Z,68.72
2023-02-25T17:19:22.928Z,69.86
2023-02-25T17:29:22.970Z,72.52
2023-02-25T17:39:22.859Z,75.17
2023-02-25T17:49:23.086Z,77.08
2023-02-25T17:59:22.995Z,80.07
2023-02-25T18:09:22.959Z,81.82
2023-02-25T18:19:22.945Z,83.83
2023-02-25T18:29:22.878Z,85.50
2023-02-25T18:39:22.926Z,87.00
2023-02-25T18:49:23.009Z,88.80
2023-02-25T18:59:22.874Z,89.34
2023-02-25T19:09:24.972Z,90.52
2023-02-25T19:19:23.282Z,90.86
